sensor_id;sensor_type;location;lat;lon;timestamp;temperature;humidity
84276;DHT22;74432;51.212;3.254;2024-01-15T00:00:23;5.30;77.10
84276;DHT22;74432;51.212;3.254;2024-01-15T00:02:49;5.30;77.20
84276;DHT22;74432;51.212;3.254;2024-01-15T00:05:14;5.30;77.70
84276;DHT22;74432;51.212;3.254;2024-01-15T00:07:40;5.30;77.40
84276;DHT22;74432;51.212;3.254;2024-01-15T00:10:06;5.30;77.30
84276;DHT22;74432;51.212;3.254;2024-01-15T00:12:31;5.20;78.00
84276;DHT22;74432;51.212;3.254;2024-01-15T00:14:57;5.40;77.00
84276;DHT22;74432;51.212;3.254;2024-01-15T00:17:22;5.50;76.40
84276;DHT22;74432;51.212;3.254;2024-01-15T00:19:48;5.40;75.10
84276;DHT22;74432;51.212;3.254;2024-01-15T00:22:14;5.40;75.00
84276;DHT22;74432;51.212;3.254;2024-01-15T00:24:39;5.30;74.90
84276;DHT22;74432;51.212;3.254;2024-01-15T00:27:05;5.30;74.40
84276;DHT22;74432;51.212;3.254;2024-01-15T00:29:31;5.30;74.50
84276;DHT22;74432;51.212;3.254;2024-01-15T00:31:56;5.30;75.10
84276;DHT22;74432;51.212;3.254;2024-01-15T00:34:22;5.40;73.40
84276;DHT22;74432;51.212;3.254;2024-01-15T00:36:47;5.40;73.50
84276;DHT22;74432;51.212;3.254;2024-01-15T00:39:13;5.50;74.20
84276;DHT22;74432;51.212;3.254;2024-01-15T00:41:39;5.50;73.00
84276;DHT22;74432;51.212;3.254;2024-01-15T00:44:05;5.50;73.40
84276;DHT22;74432;51.212;3.254;2024-01-15T00:46:30;5.50;73.70
84276;DHT22;74432;51.212;3.254;2024-01-15T00:48:56;5.40;73.60
84276;DHT22;74432;51.212;3.254;2024-01-15T00:51:21;5.50;73.90
84276;DHT22;74432;51.212;3.254;2024-01-15T00:53:47;5.60;73.10
84276;DHT22;74432;51.212;3.254;2024-01-15T00:56:13;5.60;73.30
84276;DHT22;74432;51.212;3.254;2024-01-15T00:58:39;5.60;73.80
84276;DHT22;74432;51.212;3.254;2024-01-15T01:01:04;5.60;74.00
84276;DHT22;74432;51.212;3.254;2024-01-15T01:03:30;5.70;74.40
84276;DHT22;74432;51.212;3.254;2024-01-15T01:05:56;5.90;74.60
84276;DHT22;74432;51.212;3.254;2024-01-15T01:08:21;5.90;73.60
84276;DHT22;74432;51.212;3.254;2024-01-15T01:10:47;5.80;73.80
84276;DHT22;74432;51.212;3.254;2024-01-15T01:13:12;5.80;74.40
84276;DHT22;74432;51.212;3.254;2024-01-15T01:15:38;5.80;73.50
84276;DHT22;74432;51.212;3.254;2024-01-15T01:18:04;5.70;73.70
84276;DHT22;74432;51.212;3.254;2024-01-15T01:20:30;5.50;73.60
84276;DHT22;74432;51.212;3.254;2024-01-15T01:22:55;5.50;74.30
84276;DHT22;74432;51.212;3.254;2024-01-15T01:25:21;5.40;73.40
84276;DHT22;74432;51.212;3.254;2024-01-15T01:27:47;5.40;73.70
84276;DHT22;74432;51.212;3.254;2024-01-15T01:30:12;5.40;74.70
84276;DHT22;74432;51.212;3.254;2024-01-15T01:32:38;5.40;74.30
84276;DHT22;74432;51.212;3.254;2024-01-15T01:35:04;5.50;74.00
84276;DHT22;74432;51.212;3.254;2024-01-15T01:37:30;5.30;73.60
84276;DHT22;74432;51.212;3.254;2024-01-15T01:39:56;5.40;73.50
84276;DHT22;74432;51.212;3.254;2024-01-15T01:42:21;5.50;73.50
84276;DHT22;74432;51.212;3.254;2024-01-15T01:44:47;5.50;73.30
84276;DHT22;74432;51.212;3.254;2024-01-15T01:47:13;5.50;73.00
84276;DHT22;74432;51.212;3.254;2024-01-15T01:49:40;5.60;72.20
84276;DHT22;74432;51.212;3.254;2024-01-15T01:52:07;5.60;71.40
84276;DHT22;74432;51.212;3.254;2024-01-15T01:54:34;5.60;71.60
84276;DHT22;74432;51.212;3.254;2024-01-15T01:57:02;5.50;72.40
84276;DHT22;74432;51.212;3.254;2024-01-15T01:59:28;5.50;71.80
84276;DHT22;74432;51.212;3.254;2024-01-15T02:01:55;5.40;71.60
84276;DHT22;74432;51.212;3.254;2024-01-15T02:04:25;5.40;71.70
84276;DHT22;74432;51.212;3.254;2024-01-15T02:06:51;5.50;71.70
84276;DHT22;74432;51.212;3.254;2024-01-15T02:09:18;5.60;70.80
84276;DHT22;74432;51.212;3.254;2024-01-15T02:11:46;5.50;70.50
84276;DHT22;74432;51.212;3.254;2024-01-15T02:14:11;5.30;70.00
84276;DHT22;74432;51.212;3.254;2024-01-15T02:16:37;5.40;70.50
84276;DHT22;74432;51.212;3.254;2024-01-15T02:19:03;5.40;71.10
84276;DHT22;74432;51.212;3.254;2024-01-15T02:21:29;5.40;70.70
84276;DHT22;74432;51.212;3.254;2024-01-15T02:23:58;5.30;70.60
84276;DHT22;74432;51.212;3.254;2024-01-15T02:26:24;5.30;71.80
84276;DHT22;74432;51.212;3.254;2024-01-15T02:28:50;5.40;71.10
84276;DHT22;74432;51.212;3.254;2024-01-15T02:31:16;5.40;71.20
84276;DHT22;74432;51.212;3.254;2024-01-15T02:33:43;5.50;71.40
84276;DHT22;74432;51.212;3.254;2024-01-15T02:36:09;5.50;71.50
84276;DHT22;74432;51.212;3.254;2024-01-15T02:38:35;5.60;71.40
84276;DHT22;74432;51.212;3.254;2024-01-15T02:41:00;5.50;71.70
84276;DHT22;74432;51.212;3.254;2024-01-15T02:43:26;5.50;71.80
84276;DHT22;74432;51.212;3.254;2024-01-15T02:45:52;5.50;72.20
84276;DHT22;74432;51.212;3.254;2024-01-15T02:48:17;5.40;72.40
84276;DHT22;74432;51.212;3.254;2024-01-15T02:50:43;5.30;72.50
84276;DHT22;74432;51.212;3.254;2024-01-15T02:53:09;5.30;72.30
84276;DHT22;74432;51.212;3.254;2024-01-15T02:55:34;5.40;72.30
84276;DHT22;74432;51.212;3.254;2024-01-15T02:58:00;5.30;72.20
84276;DHT22;74432;51.212;3.254;2024-01-15T03:00:26;5.30;72.50
84276;DHT22;74432;51.212;3.254;2024-01-15T03:02:51;5.30;72.00
84276;DHT22;74432;51.212;3.254;2024-01-15T03:05:17;5.30;72.10
84276;DHT22;74432;51.212;3.254;2024-01-15T03:07:43;5.20;73.40
84276;DHT22;74432;51.212;3.254;2024-01-15T03:10:09;5.40;71.70
84276;DHT22;74432;51.212;3.254;2024-01-15T03:12:35;5.40;71.80
84276;DHT22;74432;51.212;3.254;2024-01-15T03:15:00;5.30;72.40
84276;DHT22;74432;51.212;3.254;2024-01-15T03:17:26;5.20;72.90
84276;DHT22;74432;51.212;3.254;2024-01-15T03:19:52;5.30;72.90
84276;DHT22;74432;51.212;3.254;2024-01-15T03:22:17;5.30;72.90
84276;DHT22;74432;51.212;3.254;2024-01-15T03:24:43;5.40;73.40
84276;DHT22;74432;51.212;3.254;2024-01-15T03:27:09;5.30;73.10
84276;DHT22;74432;51.212;3.254;2024-01-15T03:29:35;5.30;71.40
84276;DHT22;74432;51.212;3.254;2024-01-15T03:32:00;5.30;71.40
84276;DHT22;74432;51.212;3.254;2024-01-15T03:34:26;5.30;71.40
84276;DHT22;74432;51.212;3.254;2024-01-15T03:36:52;5.10;70.90
84276;DHT22;74432;51.212;3.254;2024-01-15T03:39:17;5.30;70.40
84276;DHT22;74432;51.212;3.254;2024-01-15T03:41:43;5.20;70.70
84276;DHT22;74432;51.212;3.254;2024-01-15T03:44:09;5.10;71.30
84276;DHT22;74432;51.212;3.254;2024-01-15T03:46:34;5.10;71.90
84276;DHT22;74432;51.212;3.254;2024-01-15T03:49:00;5.10;71.70
84276;DHT22;74432;51.212;3.254;2024-01-15T03:51:29;5.10;71.80
84276;DHT22;74432;51.212;3.254;2024-01-15T03:53:54;5.10;71.50
84276;DHT22;74432;51.212;3.254;2024-01-15T03:56:20;5.10;71.40
84276;DHT22;74432;51.212;3.254;2024-01-15T03:58:45;5.10;71.00
84276;DHT22;74432;51.212;3.254;2024-01-15T04:01:11;5.10;71.00
84276;DHT22;74432;51.212;3.254;2024-01-15T04:03:37;5.20;71.20
84276;DHT22;74432;51.212;3.254;2024-01-15T04:06:03;5.10;71.10
84276;DHT22;74432;51.212;3.254;2024-01-15T04:08:29;5.10;70.90
84276;DHT22;74432;51.212;3.254;2024-01-15T04:10:55;5.00;70.80
84276;DHT22;74432;51.212;3.254;2024-01-15T04:13:21;4.80;71.40
84276;DHT22;74432;51.212;3.254;2024-01-15T04:15:47;4.70;71.70
84276;DHT22;74432;51.212;3.254;2024-01-15T04:18:12;4.80;71.80
84276;DHT22;74432;51.212;3.254;2024-01-15T04:20:38;4.70;71.70
84276;DHT22;74432;51.212;3.254;2024-01-15T04:23:04;4.70;71.80
84276;DHT22;74432;51.212;3.254;2024-01-15T04:25:30;4.50;72.10
84276;DHT22;74432;51.212;3.254;2024-01-15T04:27:58;4.60;71.70
84276;DHT22;74432;51.212;3.254;2024-01-15T04:30:24;4.50;70.50
84276;DHT22;74432;51.212;3.254;2024-01-15T04:32:50;4.50;71.10
84276;DHT22;74432;51.212;3.254;2024-01-15T04:35:15;4.40;71.10
84276;DHT22;74432;51.212;3.254;2024-01-15T04:37:41;4.50;70.90
84276;DHT22;74432;51.212;3.254;2024-01-15T04:40:07;4.40;70.40
84276;DHT22;74432;51.212;3.254;2024-01-15T04:42:33;4.40;69.50
84276;DHT22;74432;51.212;3.254;2024-01-15T04:44:59;4.40;69.60
84276;DHT22;74432;51.212;3.254;2024-01-15T04:47:25;4.30;69.60
84276;DHT22;74432;51.212;3.254;2024-01-15T04:49:50;4.30;69.60
84276;DHT22;74432;51.212;3.254;2024-01-15T04:52:16;4.30;70.20
84276;DHT22;74432;51.212;3.254;2024-01-15T04:54:42;4.20;70.60
84276;DHT22;74432;51.212;3.254;2024-01-15T04:57:08;4.20;71.50
84276;DHT22;74432;51.212;3.254;2024-01-15T04:59:33;4.20;71.00
84276;DHT22;74432;51.212;3.254;2024-01-15T05:01:59;4.10;71.10
84276;DHT22;74432;51.212;3.254;2024-01-15T05:04:24;4.20;70.10
84276;DHT22;74432;51.212;3.254;2024-01-15T05:06:50;4.20;69.20
84276;DHT22;74432;51.212;3.254;2024-01-15T05:09:16;4.20;68.10
84276;DHT22;74432;51.212;3.254;2024-01-15T05:11:43;4.20;68.70
84276;DHT22;74432;51.212;3.254;2024-01-15T05:14:09;4.20;68.90
84276;DHT22;74432;51.212;3.254;2024-01-15T05:16:34;4.20;70.00
84276;DHT22;74432;51.212;3.254;2024-01-15T05:19:00;4.30;70.50
84276;DHT22;74432;51.212;3.254;2024-01-15T05:21:29;4.40;70.70
84276;DHT22;74432;51.212;3.254;2024-01-15T05:23:54;4.50;71.00
84276;DHT22;74432;51.212;3.254;2024-01-15T05:26:20;4.50;70.40
84276;DHT22;74432;51.212;3.254;2024-01-15T05:28:46;4.50;70.30
84276;DHT22;74432;51.212;3.254;2024-01-15T05:31:12;4.60;69.80
84276;DHT22;74432;51.212;3.254;2024-01-15T05:33:38;4.50;70.80
84276;DHT22;74432;51.212;3.254;2024-01-15T05:36:04;4.60;70.00
84276;DHT22;74432;51.212;3.254;2024-01-15T05:38:30;4.60;70.10
84276;DHT22;74432;51.212;3.254;2024-01-15T05:40:55;4.60;69.80
84276;DHT22;74432;51.212;3.254;2024-01-15T05:43:21;4.60;70.10
84276;DHT22;74432;51.212;3.254;2024-01-15T05:45:46;4.50;70.20
84276;DHT22;74432;51.212;3.254;2024-01-15T05:48:12;4.50;71.00
84276;DHT22;74432;51.212;3.254;2024-01-15T05:50:38;4.40;71.00
84276;DHT22;74432;51.212;3.254;2024-01-15T05:53:04;4.40;71.50
84276;DHT22;74432;51.212;3.254;2024-01-15T05:55:30;4.40;71.30
84276;DHT22;74432;51.212;3.254;2024-01-15T05:57:56;4.50;71.60
84276;DHT22;74432;51.212;3.254;2024-01-15T06:00:21;4.40;71.50
84276;DHT22;74432;51.212;3.254;2024-01-15T06:02:47;4.40;71.70
84276;DHT22;74432;51.212;3.254;2024-01-15T06:05:13;4.20;72.10
84276;DHT22;74432;51.212;3.254;2024-01-15T06:07:38;4.00;73.00
84276;DHT22;74432;51.212;3.254;2024-01-15T06:10:04;4.10;72.50
84276;DHT22;74432;51.212;3.254;2024-01-15T06:12:30;4.20;72.10
84276;DHT22;74432;51.212;3.254;2024-01-15T06:14:56;4.20;71.80
84276;DHT22;74432;51.212;3.254;2024-01-15T06:17:22;4.30;71.10
84276;DHT22;74432;51.212;3.254;2024-01-15T06:19:48;4.30;71.10
84276;DHT22;74432;51.212;3.254;2024-01-15T06:22:13;4.10;70.30
84276;DHT22;74432;51.212;3.254;2024-01-15T06:24:39;4.10;70.60
84276;DHT22;74432;51.212;3.254;2024-01-15T06:27:05;4.10;70.20
84276;DHT22;74432;51.212;3.254;2024-01-15T06:29:31;4.00;70.20
84276;DHT22;74432;51.212;3.254;2024-01-15T06:31:57;4.00;69.60
84276;DHT22;74432;51.212;3.254;2024-01-15T06:34:23;4.00;69.00
84276;DHT22;74432;51.212;3.254;2024-01-15T06:36:48;4.00;69.40
84276;DHT22;74432;51.212;3.254;2024-01-15T06:39:14;3.90;69.40
84276;DHT22;74432;51.212;3.254;2024-01-15T06:41:40;4.00;69.40
84276;DHT22;74432;51.212;3.254;2024-01-15T06:44:12;3.90;69.40
84276;DHT22;74432;51.212;3.254;2024-01-15T06:46:45;3.90;69.00
84276;DHT22;74432;51.212;3.254;2024-01-15T06:49:11;3.90;69.10
84276;DHT22;74432;51.212;3.254;2024-01-15T06:51:37;3.90;68.60
84276;DHT22;74432;51.212;3.254;2024-01-15T06:54:02;3.90;68.60
84276;DHT22;74432;51.212;3.254;2024-01-15T06:56:28;3.90;68.80
84276;DHT22;74432;51.212;3.254;2024-01-15T06:58:54;3.80;68.60
84276;DHT22;74432;51.212;3.254;2024-01-15T07:01:19;3.90;69.60
84276;DHT22;74432;51.212;3.254;2024-01-15T07:03:48;3.90;68.40
84276;DHT22;74432;51.212;3.254;2024-01-15T07:06:14;4.00;68.30
84276;DHT22;74432;51.212;3.254;2024-01-15T07:08:40;4.00;68.00
84276;DHT22;74432;51.212;3.254;2024-01-15T07:11:06;4.10;67.80
84276;DHT22;74432;51.212;3.254;2024-01-15T07:13:32;4.10;68.00
84276;DHT22;74432;51.212;3.254;2024-01-15T07:15:58;4.00;68.30
84276;DHT22;74432;51.212;3.254;2024-01-15T07:18:23;4.10;68.40
84276;DHT22;74432;51.212;3.254;2024-01-15T07:20:50;4.10;68.70
84276;DHT22;74432;51.212;3.254;2024-01-15T07:23:16;4.00;69.70
84276;DHT22;74432;51.212;3.254;2024-01-15T07:25:42;3.90;69.90
84276;DHT22;74432;51.212;3.254;2024-01-15T07:28:08;3.90;70.40
84276;DHT22;74432;51.212;3.254;2024-01-15T07:30:34;3.90;70.40
84276;DHT22;74432;51.212;3.254;2024-01-15T07:32:59;3.90;71.00
84276;DHT22;74432;51.212;3.254;2024-01-15T07:35:25;3.90;70.90
84276;DHT22;74432;51.212;3.254;2024-01-15T07:37:51;3.80;70.60
84276;DHT22;74432;51.212;3.254;2024-01-15T07:40:16;3.70;71.10
84276;DHT22;74432;51.212;3.254;2024-01-15T07:42:42;3.90;69.20
84276;DHT22;74432;51.212;3.254;2024-01-15T07:45:10;3.90;68.00
84276;DHT22;74432;51.212;3.254;2024-01-15T07:47:36;3.80;67.10
84276;DHT22;74432;51.212;3.254;2024-01-15T07:50:02;3.90;65.80
84276;DHT22;74432;51.212;3.254;2024-01-15T07:52:28;3.90;65.60
84276;DHT22;74432;51.212;3.254;2024-01-15T07:54:54;3.90;65.70
84276;DHT22;74432;51.212;3.254;2024-01-15T07:57:20;3.90;66.70
84276;DHT22;74432;51.212;3.254;2024-01-15T07:59:46;3.90;65.20
84276;DHT22;74432;51.212;3.254;2024-01-15T08:02:11;3.90;65.30
84276;DHT22;74432;51.212;3.254;2024-01-15T08:04:37;4.00;65.60
84276;DHT22;74432;51.212;3.254;2024-01-15T08:07:04;4.00;65.00
84276;DHT22;74432;51.212;3.254;2024-01-15T08:09:31;4.00;65.70
84276;DHT22;74432;51.212;3.254;2024-01-15T08:11:56;3.90;66.90
84276;DHT22;74432;51.212;3.254;2024-01-15T08:14:22;4.00;67.60
84276;DHT22;74432;51.212;3.254;2024-01-15T08:16:48;4.00;67.70
84276;DHT22;74432;51.212;3.254;2024-01-15T08:19:13;4.00;68.60
84276;DHT22;74432;51.212;3.254;2024-01-15T08:21:39;4.10;68.70
84276;DHT22;74432;51.212;3.254;2024-01-15T08:24:05;4.10;68.20
84276;DHT22;74432;51.212;3.254;2024-01-15T08:26:32;3.90;68.80
84276;DHT22;74432;51.212;3.254;2024-01-15T08:28:58;3.90;68.90
84276;DHT22;74432;51.212;3.254;2024-01-15T08:31:24;3.80;69.00
84276;DHT22;74432;51.212;3.254;2024-01-15T08:33:50;3.80;69.30
84276;DHT22;74432;51.212;3.254;2024-01-15T08:36:16;3.90;69.80
84276;DHT22;74432;51.212;3.254;2024-01-15T08:38:41;4.00;69.80
84276;DHT22;74432;51.212;3.254;2024-01-15T08:41:07;4.00;69.60
84276;DHT22;74432;51.212;3.254;2024-01-15T08:43:34;4.00;69.70
84276;DHT22;74432;51.212;3.254;2024-01-15T08:45:59;3.90;70.50
84276;DHT22;74432;51.212;3.254;2024-01-15T08:48:26;4.00;70.50
84276;DHT22;74432;51.212;3.254;2024-01-15T08:50:53;4.00;69.70
84276;DHT22;74432;51.212;3.254;2024-01-15T08:53:20;4.00;69.40
84276;DHT22;74432;51.212;3.254;2024-01-15T08:55:46;4.00;69.40
84276;DHT22;74432;51.212;3.254;2024-01-15T08:58:11;4.00;69.80
84276;DHT22;74432;51.212;3.254;2024-01-15T09:00:37;4.00;69.80
84276;DHT22;74432;51.212;3.254;2024-01-15T09:03:03;4.00;69.70
84276;DHT22;74432;51.212;3.254;2024-01-15T09:05:29;4.00;70.20
84276;DHT22;74432;51.212;3.254;2024-01-15T09:07:55;4.10;69.60
84276;DHT22;74432;51.212;3.254;2024-01-15T09:10:21;4.10;69.90
84276;DHT22;74432;51.212;3.254;2024-01-15T09:12:47;4.00;70.20
84276;DHT22;74432;51.212;3.254;2024-01-15T09:15:14;4.00;70.20
84276;DHT22;74432;51.212;3.254;2024-01-15T09:17:40;4.10;70.90
84276;DHT22;74432;51.212;3.254;2024-01-15T09:20:06;4.10;70.40
84276;DHT22;74432;51.212;3.254;2024-01-15T09:22:32;3.90;70.80
84276;DHT22;74432;51.212;3.254;2024-01-15T09:24:58;3.80;70.30
84276;DHT22;74432;51.212;3.254;2024-01-15T09:27:25;3.80;70.50
84276;DHT22;74432;51.212;3.254;2024-01-15T09:29:52;3.90;69.90
84276;DHT22;74432;51.212;3.254;2024-01-15T09:32:17;3.80;70.20
84276;DHT22;74432;51.212;3.254;2024-01-15T09:34:44;3.90;69.90
84276;DHT22;74432;51.212;3.254;2024-01-15T09:37:09;4.00;70.10
84276;DHT22;74432;51.212;3.254;2024-01-15T09:39:35;4.20;69.70
84276;DHT22;74432;51.212;3.254;2024-01-15T09:42:01;4.30;69.70
84276;DHT22;74432;51.212;3.254;2024-01-15T09:44:28;4.40;69.00
84276;DHT22;74432;51.212;3.254;2024-01-15T09:46:55;4.60;68.70
84276;DHT22;74432;51.212;3.254;2024-01-15T09:49:21;4.40;68.00
84276;DHT22;74432;51.212;3.254;2024-01-15T09:51:47;4.40;68.00
84276;DHT22;74432;51.212;3.254;2024-01-15T09:54:14;4.30;68.70
84276;DHT22;74432;51.212;3.254;2024-01-15T09:56:45;4.10;67.70
84276;DHT22;74432;51.212;3.254;2024-01-15T09:59:17;4.10;69.00
84276;DHT22;74432;51.212;3.254;2024-01-15T10:01:46;4.20;68.70
84276;DHT22;74432;51.212;3.254;2024-01-15T10:04:14;4.20;68.90
84276;DHT22;74432;51.212;3.254;2024-01-15T10:06:44;4.10;68.30
84276;DHT22;74432;51.212;3.254;2024-01-15T10:09:13;4.00;68.00
84276;DHT22;74432;51.212;3.254;2024-01-15T10:11:43;4.10;68.10
84276;DHT22;74432;51.212;3.254;2024-01-15T10:14:12;4.20;68.80
84276;DHT22;74432;51.212;3.254;2024-01-15T10:16:41;4.20;68.70
84276;DHT22;74432;51.212;3.254;2024-01-15T10:19:10;4.10;68.30
84276;DHT22;74432;51.212;3.254;2024-01-15T10:21:36;4.10;69.40
84276;DHT22;74432;51.212;3.254;2024-01-15T10:24:03;4.10;69.40
84276;DHT22;74432;51.212;3.254;2024-01-15T10:26:30;4.10;69.90
84276;DHT22;74432;51.212;3.254;2024-01-15T10:28:59;4.20;70.10
84276;DHT22;74432;51.212;3.254;2024-01-15T10:31:26;4.20;69.50
84276;DHT22;74432;51.212;3.254;2024-01-15T10:33:52;4.20;69.10
84276;DHT22;74432;51.212;3.254;2024-01-15T10:36:18;4.30;69.00
84276;DHT22;74432;51.212;3.254;2024-01-15T10:38:44;4.20;69.00
84276;DHT22;74432;51.212;3.254;2024-01-15T10:41:10;4.30;69.20
84276;DHT22;74432;51.212;3.254;2024-01-15T10:43:36;4.40;69.80
84276;DHT22;74432;51.212;3.254;2024-01-15T10:46:02;4.60;69.50
84276;DHT22;74432;51.212;3.254;2024-01-15T10:48:28;4.50;69.20
84276;DHT22;74432;51.212;3.254;2024-01-15T10:50:56;4.50;69.00
84276;DHT22;74432;51.212;3.254;2024-01-15T10:53:23;4.50;69.00
84276;DHT22;74432;51.212;3.254;2024-01-15T10:55:50;4.50;68.60
84276;DHT22;74432;51.212;3.254;2024-01-15T10:58:17;4.40;69.10
84276;DHT22;74432;51.212;3.254;2024-01-15T11:00:44;4.40;69.50
84276;DHT22;74432;51.212;3.254;2024-01-15T11:03:10;4.50;70.10
84276;DHT22;74432;51.212;3.254;2024-01-15T11:05:43;4.40;70.40
84276;DHT22;74432;51.212;3.254;2024-01-15T11:08:09;4.40;70.40
84276;DHT22;74432;51.212;3.254;2024-01-15T11:13:14;4.50;69.70
84276;DHT22;74432;51.212;3.254;2024-01-15T11:16:02;4.70;69.60
84276;DHT22;74432;51.212;3.254;2024-01-15T11:29:07;4.50;69.10
84276;DHT22;74432;51.212;3.254;2024-01-15T11:34:09;4.60;70.50
84276;DHT22;74432;51.212;3.254;2024-01-15T11:41:59;4.40;70.40
84276;DHT22;74432;51.212;3.254;2024-01-15T11:44:26;4.40;71.10
84276;DHT22;74432;51.212;3.254;2024-01-15T11:47:02;4.30;71.10
84276;DHT22;74432;51.212;3.254;2024-01-15T11:50:02;4.40;71.50
84276;DHT22;74432;51.212;3.254;2024-01-15T11:52:34;4.40;71.50
84276;DHT22;74432;51.212;3.254;2024-01-15T11:55:01;4.50;71.60
84276;DHT22;74432;51.212;3.254;2024-01-15T11:57:52;4.50;71.20
84276;DHT22;74432;51.212;3.254;2024-01-15T12:00:18;4.50;70.20
84276;DHT22;74432;51.212;3.254;2024-01-15T12:02:45;4.50;70.20
84276;DHT22;74432;51.212;3.254;2024-01-15T12:05:16;4.50;70.90
84276;DHT22;74432;51.212;3.254;2024-01-15T12:07:49;4.40;71.30
84276;DHT22;74432;51.212;3.254;2024-01-15T12:10:17;4.30;71.50
84276;DHT22;74432;51.212;3.254;2024-01-15T12:12:59;4.30;72.10
84276;DHT22;74432;51.212;3.254;2024-01-15T12:15:27;4.30;72.60
84276;DHT22;74432;51.212;3.254;2024-01-15T12:17:58;4.30;71.90
84276;DHT22;74432;51.212;3.254;2024-01-15T12:20:25;4.40;72.20
84276;DHT22;74432;51.212;3.254;2024-01-15T12:22:51;4.50;71.90
84276;DHT22;74432;51.212;3.254;2024-01-15T12:25:17;4.70;71.20
84276;DHT22;74432;51.212;3.254;2024-01-15T12:27:43;4.90;70.70
84276;DHT22;74432;51.212;3.254;2024-01-15T12:30:13;4.70;71.00
84276;DHT22;74432;51.212;3.254;2024-01-15T12:32:42;4.60;70.90
84276;DHT22;74432;51.212;3.254;2024-01-15T12:35:09;4.60;70.90
84276;DHT22;74432;51.212;3.254;2024-01-15T12:37:39;4.50;71.60
84276;DHT22;74432;51.212;3.254;2024-01-15T12:40:06;4.50;71.70
84276;DHT22;74432;51.212;3.254;2024-01-15T12:42:41;4.70;71.70
84276;DHT22;74432;51.212;3.254;2024-01-15T12:45:11;4.80;70.90
84276;DHT22;74432;51.212;3.254;2024-01-15T12:47:38;4.70;70.10
84276;DHT22;74432;51.212;3.254;2024-01-15T12:50:11;4.60;70.10
84276;DHT22;74432;51.212;3.254;2024-01-15T12:52:37;4.60;70.70
84276;DHT22;74432;51.212;3.254;2024-01-15T12:55:08;4.60;70.50
84276;DHT22;74432;51.212;3.254;2024-01-15T12:57:35;4.60;70.90
84276;DHT22;74432;51.212;3.254;2024-01-15T13:00:02;4.60;70.90
84276;DHT22;74432;51.212;3.254;2024-01-15T13:02:31;4.70;71.10
84276;DHT22;74432;51.212;3.254;2024-01-15T13:04:58;4.70;70.90
84276;DHT22;74432;51.212;3.254;2024-01-15T13:07:25;4.80;70.60
84276;DHT22;74432;51.212;3.254;2024-01-15T13:09:50;4.90;69.70
84276;DHT22;74432;51.212;3.254;2024-01-15T13:12:19;4.70;70.10
84276;DHT22;74432;51.212;3.254;2024-01-15T13:14:45;4.60;70.60
84276;DHT22;74432;51.212;3.254;2024-01-15T13:17:12;4.60;69.90
84276;DHT22;74432;51.212;3.254;2024-01-15T13:19:40;4.60;69.60
84276;DHT22;74432;51.212;3.254;2024-01-15T13:22:05;4.40;70.00
84276;DHT22;74432;51.212;3.254;2024-01-15T13:24:35;4.30;71.30
84276;DHT22;74432;51.212;3.254;2024-01-15T13:27:02;4.30;71.20
84276;DHT22;74432;51.212;3.254;2024-01-15T13:29:29;4.40;71.00
84276;DHT22;74432;51.212;3.254;2024-01-15T13:31:55;4.40;71.50
84276;DHT22;74432;51.212;3.254;2024-01-15T13:34:21;4.40;71.30
84276;DHT22;74432;51.212;3.254;2024-01-15T13:36:46;4.40;72.10
84276;DHT22;74432;51.212;3.254;2024-01-15T13:39:12;4.40;71.80
84276;DHT22;74432;51.212;3.254;2024-01-15T13:41:38;4.40;72.00
84276;DHT22;74432;51.212;3.254;2024-01-15T13:44:03;4.50;71.30
84276;DHT22;74432;51.212;3.254;2024-01-15T13:46:29;4.60;70.60
84276;DHT22;74432;51.212;3.254;2024-01-15T13:48:55;4.60;69.90
84276;DHT22;74432;51.212;3.254;2024-01-15T13:51:24;4.60;70.20
84276;DHT22;74432;51.212;3.254;2024-01-15T13:53:50;4.50;70.60
84276;DHT22;74432;51.212;3.254;2024-01-15T13:56:16;4.50;70.70
84276;DHT22;74432;51.212;3.254;2024-01-15T13:58:42;4.40;70.30
84276;DHT22;74432;51.212;3.254;2024-01-15T14:01:08;4.50;69.90
84276;DHT22;74432;51.212;3.254;2024-01-15T14:03:34;4.50;69.90
84276;DHT22;74432;51.212;3.254;2024-01-15T14:06:00;4.60;70.70
84276;DHT22;74432;51.212;3.254;2024-01-15T14:08:28;4.70;69.30
84276;DHT22;74432;51.212;3.254;2024-01-15T14:10:54;4.70;68.40
84276;DHT22;74432;51.212;3.254;2024-01-15T14:13:21;4.60;69.10
84276;DHT22;74432;51.212;3.254;2024-01-15T14:15:47;4.50;69.40
84276;DHT22;74432;51.212;3.254;2024-01-15T14:18:16;4.50;68.20
84276;DHT22;74432;51.212;3.254;2024-01-15T14:20:41;4.50;67.90
84276;DHT22;74432;51.212;3.254;2024-01-15T14:23:08;4.50;68.50
84276;DHT22;74432;51.212;3.254;2024-01-15T14:25:33;4.50;68.30
84276;DHT22;74432;51.212;3.254;2024-01-15T14:27:59;4.50;68.70
84276;DHT22;74432;51.212;3.254;2024-01-15T14:30:25;4.30;69.90
84276;DHT22;74432;51.212;3.254;2024-01-15T14:32:51;4.40;70.10
84276;DHT22;74432;51.212;3.254;2024-01-15T14:35:16;4.50;70.20
84276;DHT22;74432;51.212;3.254;2024-01-15T14:37:42;4.40;69.60
84276;DHT22;74432;51.212;3.254;2024-01-15T14:40:08;4.50;69.50
84276;DHT22;74432;51.212;3.254;2024-01-15T14:42:35;4.50;69.00
84276;DHT22;74432;51.212;3.254;2024-01-15T14:45:04;4.60;68.70
84276;DHT22;74432;51.212;3.254;2024-01-15T14:47:39;4.70;68.70
84276;DHT22;74432;51.212;3.254;2024-01-15T14:50:09;4.60;68.50
84276;DHT22;74432;51.212;3.254;2024-01-15T14:52:38;4.60;69.30
84276;DHT22;74432;51.212;3.254;2024-01-15T14:55:04;4.60;69.40
84276;DHT22;74432;51.212;3.254;2024-01-15T14:57:30;4.60;69.10
84276;DHT22;74432;51.212;3.254;2024-01-15T14:59:56;4.50;69.00
84276;DHT22;74432;51.212;3.254;2024-01-15T15:02:22;4.30;70.00
84276;DHT22;74432;51.212;3.254;2024-01-15T15:04:48;4.40;69.20
84276;DHT22;74432;51.212;3.254;2024-01-15T15:07:14;4.50;69.30
84276;DHT22;74432;51.212;3.254;2024-01-15T15:09:40;4.50;69.10
84276;DHT22;74432;51.212;3.254;2024-01-15T15:12:06;4.40;69.80
84276;DHT22;74432;51.212;3.254;2024-01-15T15:14:32;4.40;68.90
84276;DHT22;74432;51.212;3.254;2024-01-15T15:17:06;4.40;69.20
84276;DHT22;74432;51.212;3.254;2024-01-15T15:19:32;4.50;69.30
84276;DHT22;74432;51.212;3.254;2024-01-15T15:21:59;4.40;68.80
84276;DHT22;74432;51.212;3.254;2024-01-15T15:24:25;4.40;69.70
84276;DHT22;74432;51.212;3.254;2024-01-15T15:26:50;4.40;69.00
84276;DHT22;74432;51.212;3.254;2024-01-15T15:29:16;4.40;69.40
84276;DHT22;74432;51.212;3.254;2024-01-15T15:31:45;4.40;69.40
84276;DHT22;74432;51.212;3.254;2024-01-15T15:34:11;4.40;69.40
84276;DHT22;74432;51.212;3.254;2024-01-15T15:36:37;4.40;69.50
84276;DHT22;74432;51.212;3.254;2024-01-15T15:39:02;4.30;69.10
84276;DHT22;74432;51.212;3.254;2024-01-15T15:41:28;4.20;69.50
84276;DHT22;74432;51.212;3.254;2024-01-15T15:43:54;4.20;69.60
84276;DHT22;74432;51.212;3.254;2024-01-15T15:46:20;4.20;70.00
84276;DHT22;74432;51.212;3.254;2024-01-15T15:48:46;4.20;69.70
84276;DHT22;74432;51.212;3.254;2024-01-15T15:51:11;4.20;70.20
84276;DHT22;74432;51.212;3.254;2024-01-15T15:53:37;4.30;70.20
84276;DHT22;74432;51.212;3.254;2024-01-15T15:56:03;4.30;70.00
84276;DHT22;74432;51.212;3.254;2024-01-15T15:58:29;4.30;70.00
84276;DHT22;74432;51.212;3.254;2024-01-15T16:00:55;4.20;70.00